Latest Weather Observations for Tidbinbilla

IDN60901

Issued at 3:21 pm EDT Thursday 28 January 2021 (issued every 10 minutes, with the page automatically refreshed every 10 minutes)

About weather observations | Map of Canberra area stations | Latest observations for Canberra area | Other Formats
Station Details ID: 250069 Name: TIDBINBILLA (PCS) Lat: -35.46 Lon: 148.94 Height: 883.0 m

Portable automatic weather stations (PAWS) are operated by other organisations, such as Fire and Emergency Services, and are included here by agreement. Portable stations may be deployed to a location for a short period and their location may be subject to change without notice. Wind observations from these stations are provided from heights of either three (3) or ten (10) metres above ground level (AGL).

Data from the previous 72 hours. | See also: Recent months for locations in Aust Capital Territory
Date/Time
EDT
Temp
°C
App
Temp
°C
Dew
Point
°C
Rel
Hum
%
Delta-T
°C
Wind Press
QNH
hPa
Press
MSL
hPa
Rain since
9am
mm
Dir  Spd
km/h
Gust
km/h
Spd
kts
Gust
kts
28/03:10pm 13.5 13.3 13.0 97 0.3 N 6 7 3 4 1024.7 - 4.8
28/03:00pm 13.6 13.8 13.2 97 0.2 N 4 6 2 3 1024.7 - 4.4
28/02:50pm 13.5 13.6 12.7 95 0.5 N 4 6 2 3 1024.7 - 4.0
28/02:40pm 13.6 14.5 12.9 95 0.4 CALM 0 2 0 1 1024.8 - 3.2
28/02:30pm 13.7 14.2 12.9 95 0.5 NNW 2 4 1 2 1024.9 - 2.8
28/02:20pm 13.9 14.5 13.0 94 0.5 N 2 4 1 2 1025.0 - 2.4
28/02:10pm 13.9 14.4 12.8 93 0.6 N 2 7 1 4 1025.2 - 1.8
28/01:50pm 14.1 13.7 12.9 92 0.7 N 7 11 4 6 1025.1 - 0.8
28/01:40pm 14.4 14.6 13.2 92 0.7 N 4 6 2 3 1025.0 - 0.8
28/01:30pm 14.3 13.7 11.6 84 1.5 N 6 9 3 5 1025.1 - 0.8
28/01:20pm 14.4 13.1 11.4 82 1.7 NNE 9 13 5 7 1025.1 - 0.6
28/01:10pm 14.5 12.9 11.5 82 1.7 NNE 11 13 6 7 1025.0 - 0.4
28/01:00pm 14.6 12.7 11.7 83 1.6 NE 13 17 7 9 1024.9 - 0.0
28/12:40pm 14.5 12.7 10.7 78 2.1 ENE 11 20 6 11 1025.0 - 0.0
28/12:20pm 14.8 13.0 11.0 78 2.1 NE 11 17 6 9 1025.4 - 0.0
28/12:10pm 15.0 12.5 11.1 77 2.2 NE 15 22 8 12 1025.1 - 0.0
28/11:50am 15.1 13.7 10.8 75 2.4 NE 9 11 5 6 1025.0 - 0.0
28/11:40am 15.1 12.6 11.1 77 2.2 NE 15 19 8 10 1025.1 - 0.0
28/11:30am 15.1 12.5 10.8 75 2.4 NE 15 19 8 10 1025.0 - 0.0
28/11:20am 15.1 12.2 10.9 76 2.3 NE 17 20 9 11 1025.2 - 0.0
28/11:00am 15.3 12.8 10.9 75 2.4 NE 15 19 8 10 1025.0 - 0.0
28/10:50am 15.2 12.6 10.8 75 2.4 NE 15 17 8 9 1025.0 - 0.0
28/10:40am 15.3 12.8 11.0 75 2.4 NE 15 19 8 10 1025.0 - 0.0
28/10:30am 15.0 12.4 10.7 75 2.4 NE 15 24 8 13 1024.9 - 0.0
28/10:20am 15.0 13.2 11.0 77 2.2 NE 11 19 6 10 1025.0 - 0.0
28/10:10am 15.0 13.2 11.0 77 2.2 NNE 11 17 6 9 1024.8 - 0.0
28/10:00am 14.8 13.5 11.3 79 2.0 NE 9 15 5 8 1024.5 - 0.2
28/09:50am 14.8 13.9 11.5 80 1.9 N 7 11 4 6 1024.5 - 0.2
28/09:40am 14.7 12.9 10.8 77 2.2 NE 11 15 6 8 1024.5 - 0.2
28/09:30am 14.5 13.2 11.3 81 1.8 NNE 9 13 5 7 1024.6 - 0.2
28/09:20am 14.4 12.2 10.9 79 1.9 NE 13 17 7 9 1024.6 - 0.2
28/09:10am 14.5 11.5 10.7 78 2.1 NE 17 22 9 12 1024.5 - 0.2
28/09:00am 14.5 12.3 10.8 78 2.0 NE 13 17 7 9 1024.5 - 0.2
28/08:50am 14.5 13.2 11.2 80 1.8 NE 9 15 5 8 1024.5 - 0.2
28/08:40am 14.5 12.5 11.5 82 1.7 NNE 13 15 7 8 1024.6 - 0.2
28/08:30am 14.4 13.5 11.2 81 1.8 NNE 7 9 4 5 1024.5 - 0.2
28/08:20am 14.2 12.8 10.9 80 1.8 NE 9 13 5 7 1024.6 - 0.2
28/08:10am 14.2 13.2 11.0 81 1.8 NE 7 11 4 6 1024.2 - 0.2
28/08:00am 14.1 12.3 10.9 81 1.8 NNE 11 13 6 7 1024.3 - 0.2
28/07:50am 13.9 13.0 11.2 84 1.5 N 7 9 4 5 1024.0 - 0.2
28/07:40am 13.9 12.7 11.5 85 1.3 NNE 9 11 5 6 1024.0 - 0.2
28/07:30am 13.8 12.0 11.0 83 1.5 NNE 11 13 6 7 1023.9 - 0.2
28/07:20am 13.8 12.0 11.0 83 1.5 NE 11 13 6 7 1023.8 - 0.2
28/07:10am 13.8 12.8 10.9 83 1.6 NNE 7 13 4 7 1023.7 - 0.2
28/07:00am 13.8 12.8 11.0 83 1.5 NNE 7 11 4 6 1023.6 - 0.2
28/06:50am 13.8 12.8 11.1 84 1.5 NNE 7 13 4 7 1023.5 - 0.2
28/06:40am 13.8 12.0 11.0 83 1.5 NE 11 19 6 10 1023.3 - 0.2
28/06:30am 13.8 12.8 11.0 83 1.5 NNE 7 13 4 7 1023.1 - 0.2
28/06:20am 13.8 12.5 11.1 84 1.5 NNE 9 17 5 9 1023.1 - 0.2
28/06:10am 13.8 12.0 10.9 83 1.6 NE 11 15 6 8 1022.9 - 0.2
28/06:00am 13.9 12.1 11.0 83 1.6 NE 11 15 6 8 1022.9 - 0.2
28/05:50am 13.8 12.5 11.4 85 1.3 N 9 13 5 7 1022.8 - 0.2
28/05:40am 13.8 12.5 11.3 85 1.4 N 9 15 5 8 1022.7 - 0.2
28/05:30am 13.8 11.8 11.5 86 1.3 NNE 13 20 7 11 1022.6 - 0.2
28/05:20am 13.9 12.7 11.6 86 1.3 NE 9 11 5 6 1022.5 - 0.2
28/05:10am 14.0 13.3 11.3 84 1.5 NNE 6 7 3 4 1022.8 - 0.2
28/05:00am 14.0 13.1 11.4 84 1.4 NE 7 11 4 6 1022.7 - 0.2
28/04:50am 14.0 12.7 11.3 84 1.5 NE 9 13 5 7 1022.4 - 0.2
28/04:40am 14.0 12.4 11.4 84 1.4 NE 11 17 6 9 1022.2 - 0.2
28/04:10am 14.1 11.7 11.5 84 1.5 NE 15 19 8 10 1022.3 - 0.2
28/04:00am 14.2 11.4 11.4 83 1.6 ENE 17 20 9 11 1022.1 - 0.2
28/03:50am 14.3 11.2 11.5 83 1.6 ENE 19 22 10 12 1022.2 - 0.2
28/03:40am 14.4 11.6 11.4 82 1.7 NE 17 22 9 12 1022.3 - 0.2
28/03:30am 14.5 11.4 11.5 82 1.7 NE 19 20 10 11 1022.3 - 0.2
28/03:20am 14.6 12.7 11.7 83 1.6 NE 13 17 7 9 1022.2 - 0.2
28/03:10am 14.6 13.0 11.6 82 1.7 NE 11 17 6 9 1022.1 - 0.2
28/03:00am 14.6 13.0 11.7 83 1.6 NE 11 15 6 8 1022.2 - 0.2
28/02:50am 14.7 13.1 11.7 82 1.7 NNE 11 15 6 8 1022.1 - 0.2
28/02:40am 14.7 14.1 11.8 83 1.6 NNE 6 13 3 7 1021.9 - 0.2
28/02:30am 14.7 13.2 11.9 83 1.6 NNE 11 15 6 8 1022.1 - 0.2
28/02:20am 14.8 13.7 12.1 84 1.5 NNE 9 15 5 8 1022.1 - 0.2
28/01:50am 14.9 13.0 11.8 82 1.7 NE 13 19 7 10 1022.1 - 0.2
28/01:40am 15.0 12.3 11.8 81 1.8 NE 17 20 9 11 1022.0 - 0.2
28/01:30am 15.0 13.1 11.7 80 1.9 NNE 13 19 7 10 1022.1 - 0.2
28/01:20am 15.0 12.7 11.7 80 1.9 NE 15 19 8 10 1022.2 - 0.2
28/01:10am 14.9 13.0 11.9 82 1.7 NE 13 20 7 11 1022.2 - 0.2
28/01:00am 14.9 13.4 11.8 82 1.7 NNE 11 17 6 9 1022.3 - 0.2
28/12:40am 15.1 13.1 11.6 79 2.0 NNE 13 17 7 9 1022.4 - 0.2
28/12:20am 15.2 13.1 11.1 76 2.3 NE 13 15 7 8 1022.5 - 0.2
28/12:00am 15.2 13.2 11.4 78 2.1 NNE 13 19 7 10 1022.3 - 0.2
 
Date/Time
EDT
Temp
°C
App
Temp
°C
Dew
Point
°C
Rel
Hum
%
Delta-T
°C
Wind Press
QNH
hPa
Press
MSL
hPa
Rain since
9am
mm
Dir  Spd
km/h
Gust
km/h
Spd
kts
Gust
kts
27/11:50pm 15.2 13.4 10.9 75 2.4 NNE 11 13 6 7 1022.3 - 0.2
27/11:40pm 15.0 13.9 10.8 76 2.3 NNE 7 11 4 6 1022.2 - 0.2
27/11:30pm 14.8 14.5 11.3 79 2.0 NNW 4 6 2 3 1022.1 - 0.2
27/11:20pm 14.9 15.0 11.4 79 2.0 WSW 2 2 1 1 1022.1 - 0.2
27/11:10pm 14.8 14.8 11.2 79 2.0 WSW 2 4 1 2 1022.1 - 0.2
27/11:00pm 14.9 15.0 11.4 79 2.0 W 2 6 1 3 1022.0 - 0.2
27/10:50pm 15.1 14.8 11.4 78 2.1 SSE 4 6 2 3 1022.1 - 0.2
27/10:40pm 15.1 14.5 10.4 73 2.6 ESE 4 6 2 3 1022.1 - 0.2
27/10:30pm 15.2 14.9 11.5 78 2.1 S 4 7 2 4 1022.1 - 0.2
27/10:20pm 15.2 15.0 10.6 74 2.5 WNW 2 7 1 4 1022.1 - 0.2
27/10:10pm 15.0 14.5 10.9 76 2.3 W 4 6 2 3 1022.1 - 0.2
27/10:00pm 15.1 14.8 11.4 78 2.1 ENE 4 6 2 3 1022.0 - 0.2
27/09:50pm 15.2 14.6 10.5 73 2.6 NW 4 7 2 4 1021.9 - 0.2
27/09:40pm 15.1 15.1 11.0 76 2.3 WNW 2 7 1 4 1021.8 - 0.2
27/09:30pm 15.2 14.7 10.8 75 2.4 S 4 6 2 3 1021.6 - 0.2
27/09:20pm 15.1 14.9 10.5 74 2.5 SSE 2 6 1 3 1021.5 - 0.2
27/09:10pm 15.1 14.1 10.3 73 2.6 S 6 9 3 5 1021.2 - 0.2
27/09:00pm 15.0 13.8 10.4 74 2.5 S 7 9 4 5 1021.3 - 0.2
27/08:50pm 15.0 14.8 10.4 74 2.5 S 2 6 1 3 1021.2 - 0.2
27/08:40pm 15.2 14.8 9.7 69 3.0 NE 2 6 1 3 1021.0 - 0.2
27/08:30pm 15.2 14.2 10.3 72 2.7 NNE 6 11 3 6 1020.9 - 0.2
27/08:20pm 15.2 14.1 9.9 70 2.9 NE 6 9 3 5 1020.9 - 0.2
27/08:10pm 15.1 13.8 10.0 71 2.8 NNE 7 13 4 7 1020.9 - 0.2
27/07:50pm 15.2 14.1 9.8 70 2.9 NNE 6 9 3 5 1020.7 - 0.2
27/07:40pm 15.3 14.2 10.0 70 2.9 N 6 7 3 4 1020.6 - 0.2
27/07:30pm 15.3 15.0 10.2 71 2.8 ENE 2 6 1 3 1020.5 - 0.2
27/07:20pm 15.3 14.4 11.4 77 2.2 NNE 7 9 4 5 1020.6 - 0.2
27/07:10pm 15.3 14.9 11.2 76 2.3 N 4 7 2 4 1020.3 - 0.2
27/07:00pm 15.3 15.0 11.3 77 2.2 NNE 4 7 2 4 1020.2 - 0.2
27/06:50pm 15.3 15.0 11.4 77 2.2 NNE 4 9 2 5 1019.8 - 0.2
27/06:40pm 15.3 14.1 11.6 78 2.1 NE 9 13 5 7 1019.7 - 0.2
27/06:30pm 15.7 13.9 12.2 80 2.0 NE 13 17 7 9 1019.6 - 0.2
27/06:20pm 15.8 14.5 12.5 81 1.9 NE 11 15 6 8 1019.6 - 0.2
27/06:10pm 15.7 15.2 13.9 89 1.1 NE 9 13 5 7 1019.3 - 0.2
27/06:00pm 15.7 15.3 14.1 90 0.9 NE 9 11 5 6 1019.3 - 0.2
27/05:50pm 15.9 15.5 14.1 89 1.1 ENE 9 13 5 7 1019.3 - 0.2
27/05:40pm 16.3 16.5 14.1 87 1.3 ENE 6 9 3 5 1019.3 - 0.2
27/05:30pm 16.6 16.7 14.0 84 1.5 ENE 6 9 3 5 1019.2 - 0.2
27/05:20pm 16.8 17.5 14.4 86 1.4 NNE 4 7 2 4 1019.1 - 0.2
27/05:10pm 16.8 17.1 14.4 86 1.4 N 6 9 3 5 1018.8 - 0.2
27/05:00pm 16.8 17.4 15.2 90 1.0 N 6 9 3 5 1018.8 - 0.2
27/04:50pm 16.8 16.3 13.9 83 1.7 NE 9 13 5 7 1018.7 - 0.2
27/04:40pm 16.9 16.8 14.0 83 1.7 NNE 7 11 4 6 1018.6 - 0.2
27/04:30pm 17.0 17.3 14.5 85 1.5 NNE 6 9 3 5 1018.6 - 0.2
27/04:20pm 17.1 17.0 13.9 81 1.9 NNE 7 11 4 6 1018.5 - 0.2
27/04:10pm 17.4 18.2 14.8 85 1.6 NNE 4 7 2 4 1018.4 - 0.2
27/04:00pm 17.3 18.5 15.8 91 0.9 N 4 7 2 4 1018.3 - 0.2
27/03:50pm 17.1 17.4 14.4 84 1.6 NNE 6 7 3 4 1018.3 - 0.2
27/03:40pm 17.2 18.1 15.1 87 1.3 N 4 7 2 4 1018.4 - 0.2
27/03:30pm 17.1 17.8 15.6 91 0.9 N 6 7 3 4 1018.5 - 0.2
27/03:20pm 17.1 17.9 15.8 92 0.8 N 6 9 3 5 1018.5 - 0.2
27/03:10pm 17.0 18.6 15.9 93 0.7 NNE 2 6 1 3 1018.5 - 0.2
27/03:00pm 16.8 18.3 15.7 93 0.7 N 2 6 1 3 1018.4 - 0.2
27/02:50pm 16.6 17.1 15.5 93 0.7 NNE 7 9 4 5 1018.5 - 0.2
27/02:40pm 16.6 17.2 15.4 93 0.7 NE 6 9 3 5 1018.5 - 0.2
27/02:30pm 16.7 17.3 15.3 91 0.8 ENE 6 9 3 5 1018.5 - 0.2
27/02:20pm 16.8 17.3 15.1 90 1.0 ENE 6 7 3 4 1018.5 - 0.2
27/02:10pm 16.9 17.6 15.5 91 0.9 NE 6 9 3 5 1018.4 - 0.2
27/02:00pm 16.8 17.3 15.1 90 1.0 ENE 6 7 3 4 1018.4 - 0.2
27/01:50pm 16.7 17.4 15.7 94 0.6 ENE 6 9 3 5 1018.4 - 0.2
27/01:40pm 16.6 17.0 15.2 91 0.8 NE 7 9 4 5 1018.5 - 0.2
27/01:30pm 16.4 16.4 15.3 93 0.7 NE 9 13 5 7 1018.4 - 0.2
27/01:20pm 16.6 17.3 15.5 93 0.7 ENE 6 7 3 4 1018.3 - 0.2
27/01:10pm 16.5 16.5 15.2 92 0.8 NE 9 13 5 7 1018.3 - 0.2
27/01:00pm 16.5 16.6 15.5 94 0.6 NE 9 11 5 6 1018.2 - 0.2
27/12:50pm 16.5 17.1 15.7 95 0.5 NE 7 9 4 5 1018.0 - 0.2
27/12:40pm 16.5 17.0 15.6 94 0.5 NE 7 9 4 5 1018.0 - 0.0
27/12:30pm 16.3 16.8 15.6 96 0.4 NE 7 11 4 6 1018.1 - 0.0
27/12:20pm 16.3 16.8 15.6 96 0.4 NE 7 11 4 6 1018.0 - 0.0
27/12:10pm 16.3 16.9 15.4 94 0.5 NE 6 9 3 5 1017.9 - 0.0
27/12:00pm 16.4 16.9 15.5 94 0.5 NE 7 9 4 5 1017.7 - 0.0
27/11:50am 16.3 16.3 15.1 93 0.7 NE 9 11 5 6 1017.6 - 0.0
27/11:40am 16.7 16.7 15.3 91 0.8 ENE 9 11 5 6 1017.5 - 0.0
27/11:30am 16.7 16.9 15.7 94 0.6 ENE 9 11 5 6 1017.5 - 0.0
27/11:20am 16.6 16.6 15.1 91 0.9 NE 9 11 5 6 1017.4 - 0.0
27/11:10am 16.7 16.8 15.6 93 0.7 ENE 9 13 5 7 1017.3 - 0.0
27/11:00am 16.4 16.4 15.2 93 0.7 ENE 9 13 5 7 1017.3 - 0.0
27/10:50am 16.4 16.1 15.4 94 0.6 ENE 11 15 6 8 1017.2 - 0.0
27/10:40am 16.3 16.0 15.4 94 0.5 ENE 11 13 6 7 1017.1 - 0.0
27/10:30am 16.1 15.4 15.3 95 0.5 NE 13 15 7 8 1017.1 - 0.0
27/10:20am 16.4 16.6 15.8 96 0.4 NE 9 13 5 7 1017.0 - 0.0
27/10:10am 16.4 17.2 15.9 97 0.3 ENE 6 7 3 4 1017.0 - 0.0
27/10:00am 16.1 16.2 15.6 97 0.3 NE 9 11 5 6 1017.0 - 6.2
27/09:50am 16.3 17.5 15.9 97 0.2 ENE 4 6 2 3 1016.8 - 6.2
27/09:40am 16.0 17.1 15.7 98 0.2 NE 4 6 2 3 1016.7 - 6.2
27/09:30am 15.8 16.5 15.6 99 0.1 NNE 6 7 3 4 1016.6 - 6.2
27/09:20am 15.5 16.5 15.3 99 0.1 NNW 4 7 2 4 1016.6 - 6.0
27/09:10am 15.5 16.5 15.3 99 0.1 NNW 4 6 2 3 1016.5 - 6.0
27/09:00am 15.3 16.2 15.1 99 0.1 NNW 4 6 2 3 1016.3 - 6.0
27/08:50am 15.2 16.1 15.1 99 0.1 N 4 6 2 3 1016.2 - 6.0
27/08:40am 15.0 15.8 14.8 99 0.1 NW 4 7 2 4 1016.1 - 5.8
27/08:30am 15.0 16.2 14.9 99 0.1 SW 2 6 1 3 1015.9 - 5.8
27/08:20am 15.0 16.2 14.9 99 0.1 WNW 2 6 1 3 1015.7 - 5.8
27/08:00am 14.9 16.1 14.8 99 0.1 S 2 6 1 3 1015.3 - 5.8
27/07:40am 14.9 15.7 14.8 99 0.1 NNW 4 7 2 4 1015.0 - 5.6
27/07:30am 14.9 15.7 14.7 99 0.1 NNW 4 6 2 3 1014.6 - 5.6
27/07:20am 15.0 16.2 14.9 99 0.1 WSW 2 4 1 2 1014.4 - 5.6
27/07:10am 15.2 16.1 15.1 99 0.1 NW 4 6 2 3 1014.2 - 5.4
27/06:50am 15.7 17.2 15.6 99 0.1 S 2 6 1 3 1013.9 - 5.2
27/06:20am 15.8 16.5 15.7 99 0.1 ESE 6 9 3 5 1013.4 - 5.0
27/06:10am 15.9 17.1 15.8 99 0.1 ESE 4 6 2 3 1013.2 - 5.0
27/06:00am 15.9 17.4 15.8 99 0.1 NNW 2 6 1 3 1012.9 - 4.8
27/05:50am 15.9 17.1 15.8 99 0.1 N 4 6 2 3 1012.6 - 4.8
27/05:40am 15.9 17.4 15.8 99 0.1 N 2 6 1 3 1012.4 - 4.8
27/05:30am 16.0 17.2 15.9 99 0.1 NNE 4 7 2 4 1012.3 - 4.8
27/05:20am 16.0 16.8 15.9 99 0.1 NNW 6 7 3 4 1012.1 - 4.6
27/05:10am 16.2 17.5 16.1 99 0.1 NNW 4 9 2 5 1012.0 - 4.6
27/03:30am 16.6 18.4 16.5 99 0.1 SSW 2 2 1 1 1011.2 - 4.0
27/03:20am 16.7 18.6 16.6 99 0.1 SW 2 4 1 2 1011.2 - 4.0
27/01:10am 17.7 19.6 17.6 99 0.1 E 4 7 2 4 1011.0 - 4.0
27/01:00am 17.6 18.5 17.5 99 0.1 SE 9 9 5 5 1011.0 - 4.0
27/12:50am 17.6 18.5 17.5 99 0.1 ESE 9 11 5 6 1010.9 - 4.0
27/12:40am 17.6 18.5 17.6 100 0.0 ESE 9 11 5 6 1010.9 - 4.0
27/12:30am 17.9 19.3 17.8 99 0.1 E 7 11 4 6 1011.0 - 4.0
27/12:20am 18.2 20.0 18.2 100 0.0 NE 6 7 3 4 1010.8 - 4.0
27/12:10am 18.3 20.1 18.2 99 0.1 N 6 7 3 4 1011.0 - 4.0
27/12:00am 18.3 20.1 18.2 99 0.1 NNE 6 6 3 3 1010.8 - 4.0
 
Date/Time
EDT
Temp
°C
App
Temp
°C
Dew
Point
°C
Rel
Hum
%
Delta-T
°C
Wind Press
QNH
hPa
Press
MSL
hPa
Rain since
9am
mm
Dir  Spd
km/h
Gust
km/h
Spd
kts
Gust
kts
26/11:50pm 18.3 20.1 18.3 100 0.0 NE 6 7 3 4 1010.9 - 4.0
26/11:40pm 18.4 20.2 18.3 99 0.1 NNE 6 7 3 4 1010.9 - 4.0
26/11:30pm 18.4 21.0 18.3 99 0.1 WSW 2 2 1 1 1010.7 - 4.0
26/11:20pm 18.2 20.3 18.1 99 0.1 SSE 4 6 2 3 1010.8 - 4.0
26/11:10pm 18.3 20.1 18.2 99 0.1 SSE 6 7 3 4 1010.7 - 4.0
26/11:00pm 18.2 21.1 18.1 99 0.1 CALM 0 2 0 1 1010.7 - 4.0
26/10:50pm 18.3 20.4 18.2 99 0.1 SSE 4 4 2 2 1010.6 - 4.0
26/10:40pm 18.3 20.4 18.2 99 0.1 S 4 4 2 2 1010.4 - 4.0
26/10:30pm 18.3 20.8 18.2 99 0.1 SE 2 4 1 2 1010.3 - 4.0
26/10:20pm 18.4 21.3 18.3 99 0.1 CALM 0 2 0 1 1010.5 - 4.0
26/10:10pm 18.3 20.8 18.2 99 0.1 NNW 2 4 1 2 1010.5 - 4.0
26/10:00pm 18.3 20.1 18.2 99 0.1 N 6 6 3 3 1010.4 - 4.0
26/09:50pm 18.2 19.9 18.1 99 0.1 NNE 6 6 3 3 1010.4 - 4.0
26/09:40pm 18.2 19.7 18.1 99 0.1 NE 7 9 4 5 1010.4 - 4.0
26/09:30pm 18.3 20.0 18.1 99 0.1 NE 6 7 3 4 1010.2 - 4.0
26/09:20pm 18.2 20.3 18.0 99 0.1 NE 4 7 2 4 1010.2 - 3.8
26/09:10pm 18.2 19.9 18.0 99 0.1 NE 6 7 3 4 1010.0 - 3.8
26/09:00pm 18.2 19.8 17.9 98 0.2 NE 6 7 3 4 1009.8 - 3.8
26/08:50pm 18.2 19.6 17.9 98 0.2 NE 7 11 4 6 1009.6 - 3.8
26/08:40pm 18.3 19.7 17.9 97 0.3 NE 7 9 4 5 1009.6 - 3.6
26/08:30pm 18.3 20.3 17.9 97 0.3 ENE 4 6 2 3 1009.5 - 3.4
26/08:20pm 18.3 19.9 17.8 97 0.3 ENE 6 7 3 4 1009.3 - 3.2
26/08:10pm 18.4 20.0 17.9 97 0.3 ENE 6 7 3 4 1009.2 - 2.8
26/08:00pm 18.5 19.9 17.9 96 0.4 NE 7 9 4 5 1009.0 - 2.0
26/07:50pm 18.8 20.4 17.8 94 0.6 NNE 6 7 3 4 1008.8 - 1.0
26/07:40pm 19.1 20.6 17.7 92 0.9 NNE 6 9 3 5 1008.7 - 0.0
26/07:30pm 19.5 21.1 17.8 90 1.1 NNW 6 11 3 6 1008.5 - 0.0
26/07:20pm 20.2 21.2 17.8 86 1.5 NW 9 17 5 9 1008.4 - 0.0
26/07:10pm 21.2 21.2 17.1 77 2.6 NW 13 22 7 12 1008.2 - 0.0
26/07:00pm 21.8 21.2 16.6 72 3.3 NNW 15 20 8 11 1008.1 - 0.0
26/06:50pm 22.0 21.6 16.1 69 3.7 WNW 13 26 7 14 1007.8 - 0.0
26/06:40pm 22.2 22.9 16.2 69 3.8 W 7 15 4 8 1007.6 - 0.0
26/06:30pm 22.3 22.5 15.8 66 4.1 WSW 9 15 5 8 1007.5 - 0.0
26/06:20pm 22.1 21.6 15.9 68 3.9 WSW 13 20 7 11 1007.5 - 0.0
26/06:10pm 21.9 21.3 15.7 68 3.9 W 13 19 7 10 1007.4 - 0.0
26/06:00pm 21.8 21.0 16.2 70 3.5 WSW 15 20 8 11 1007.3 - 0.0
26/05:50pm 21.7 20.4 15.8 69 3.7 W 17 26 9 14 1007.4 - 0.0
26/05:40pm 21.4 19.8 15.9 71 3.4 WSW 19 22 10 12 1007.4 - 0.0
26/05:30pm 21.9 19.5 16.4 71 3.5 W 24 32 13 17 1007.6 - 0.0
26/05:20pm 22.4 20.5 15.7 66 4.2 WSW 20 26 11 14 1007.2 - 0.0
26/05:10pm 22.4 21.2 16.0 67 4.0 WSW 17 20 9 11 1007.3 - 0.0
26/05:00pm 22.4 20.5 15.3 64 4.4 WSW 19 32 10 17 1007.3 - 0.0
26/04:50pm 22.2 20.2 15.4 65 4.2 WSW 20 32 11 17 1007.4 - 0.0
26/04:40pm 21.5 19.3 15.0 66 4.0 WSW 20 28 11 15 1007.4 - 0.0
26/04:30pm 21.0 19.3 16.3 74 2.9 WSW 20 30 11 16 1007.5 - 0.0
26/04:10pm 22.5 19.8 15.7 65 4.2 WSW 24 33 13 18 1007.4 - 0.0
26/09:50am 24.5 21.6 11.1 43 7.8 W 17 30 9 16 1006.9 - 0.0
26/09:40am 24.5 21.1 11.4 43 7.7 WNW 20 28 11 15 1006.9 - 0.0
26/09:30am 24.7 20.0 10.7 41 8.1 W 26 37 14 20 1006.9 - 0.0
26/08:20am 24.0 20.5 10.2 41 7.9 W 19 30 10 16 1007.2 - 0.0
26/08:10am 23.9 20.3 10.6 43 7.7 WNW 20 28 11 15 1007.2 - 0.0
26/08:00am 24.0 20.4 10.5 42 7.8 NNW 20 30 11 16 1007.1 - 0.0
26/07:50am 24.6 21.2 10.4 40 8.2 NNW 19 26 10 14 1007.1 - 0.0
26/07:40am 24.9 22.1 9.9 38 8.6 WNW 15 28 8 15 1007.3 - 0.0
26/07:20am 23.7 20.5 9.9 41 7.9 W 17 26 9 14 1007.4 - 0.0
26/07:10am 23.2 21.0 9.5 41 7.7 WNW 11 26 6 14 1007.1 - 0.0
26/07:00am 23.4 20.1 9.5 41 7.9 WNW 17 24 9 13 1007.1 - 0.0
26/06:50am 23.4 20.8 9.5 41 7.9 NW 13 20 7 11 1007.5 - 0.0
26/06:40am 23.9 20.5 9.3 39 8.2 WSW 17 30 9 16 1007.1 - 0.0
26/06:30am 24.0 21.0 9.2 39 8.3 W 15 26 8 14 1007.2 - 0.0
26/06:10am 24.0 20.1 8.8 38 8.5 WNW 19 28 10 15 1006.8 - 0.0
26/05:30am 24.8 20.8 8.2 34 9.2 WNW 19 30 10 16 1006.4 - 0.0
26/05:20am 24.8 21.2 8.4 35 9.2 WNW 17 28 9 15 1006.4 - 0.0
26/05:10am 24.9 21.2 8.1 34 9.3 W 17 24 9 13 1006.3 - 0.0
26/05:00am 24.8 21.5 8.2 34 9.2 W 15 20 8 11 1006.3 - 0.0
26/04:50am 25.0 21.0 8.2 34 9.4 WNW 19 33 10 18 1006.3 - 0.0
26/04:40am 25.2 21.0 8.4 34 9.4 WNW 20 28 11 15 1006.3 - 0.0
26/04:30am 25.2 21.6 8.2 34 9.5 WNW 17 28 9 15 1006.3 - 0.0
26/04:20am 25.3 20.8 8.4 34 9.5 NW 22 30 12 16 1006.4 - 0.0
26/04:10am 25.6 22.4 8.3 33 9.7 W 15 28 8 15 1006.4 - 0.0
26/04:00am 25.6 21.6 8.2 33 9.7 WNW 19 28 10 15 1006.4 - 0.0
26/03:50am 25.5 21.4 8.0 33 9.7 W 19 30 10 16 1006.5 - 0.0
26/03:40am 25.4 21.2 8.3 33 9.6 NW 20 24 11 13 1006.7 - 0.0
26/03:20am 25.4 21.7 8.1 33 9.6 NW 17 24 9 13 1006.8 - 0.0
26/03:10am 25.7 22.0 8.0 32 9.9 NW 17 22 9 12 1006.9 - 0.0
26/03:00am 25.8 21.7 7.7 31 10.0 NW 19 26 10 14 1006.7 - 0.0
26/02:50am 26.1 21.8 7.9 31 10.1 WNW 20 33 11 18 1007.1 - 0.0
26/02:40am 26.3 22.1 8.2 31 10.1 W 20 28 11 15 1007.4 - 0.0
26/02:20am 26.3 21.7 8.3 32 10.1 NW 22 35 12 19 1007.4 - 0.0
26/02:10am 26.5 22.4 8.5 32 10.2 WNW 20 32 11 17 1007.4 - 0.0
26/02:00am 26.4 21.8 8.2 31 10.2 WNW 22 44 12 24 1007.5 - 0.0
26/01:50am 26.7 21.8 8.6 32 10.2 WNW 24 33 13 18 1007.8 - 0.0
26/01:40am 26.8 22.3 8.4 31 10.4 WNW 22 37 12 20 1007.6 - 0.0
26/01:30am 26.7 21.9 8.9 32 10.1 NNW 24 44 13 24 1007.8 - 0.0
26/01:20am 26.9 23.4 8.6 31 10.4 NW 17 20 9 11 1008.1 - 0.0
26/01:10am 26.8 23.7 8.7 32 10.3 W 15 22 8 12 1008.0 - 0.0
26/01:00am 27.1 23.0 8.8 31 10.4 W 20 32 11 17 1007.8 - 0.0
26/12:50am 27.2 22.6 8.2 30 10.7 WNW 22 30 12 16 1007.9 - 0.0
26/12:40am 27.3 22.7 8.0 29 10.8 WNW 22 28 12 15 1008.1 - 0.0
26/12:30am 27.2 23.9 7.9 29 10.8 W 15 24 8 13 1008.1 - 0.0
26/12:20am 27.0 23.1 7.3 28 10.9 WNW 17 26 9 14 1008.1 - 0.0
26/12:10am 27.1 23.4 8.0 30 10.7 W 17 22 9 12 1008.1 - 0.0
26/12:00am 27.2 23.4 7.5 28 11.0 W 17 24 9 13 1008.3 - 0.0
 
Date/Time
EDT
Temp
°C
App
Temp
°C
Dew
Point
°C
Rel
Hum
%
Delta-T
°C
Wind Press
QNH
hPa
Press
MSL
hPa
Rain since
9am
mm
Dir  Spd
km/h
Gust
km/h
Spd
kts
Gust
kts
25/11:50pm 27.2 24.2 7.6 29 10.9 WSW 13 19 7 10 1008.3 - 0.0
25/11:40pm 27.3 23.4 7.1 27 11.2 W 17 26 9 14 1008.4 - 0.0
25/11:30pm 27.3 23.8 7.4 28 11.1 W 15 17 8 9 1008.4 - 0.0
25/11:20pm 27.7 24.6 7.3 27 11.3 W 13 19 7 10 1008.5 - 0.0
25/11:00pm 27.8 23.9 7.2 27 11.4 WNW 17 26 9 14 1008.6 - 0.0
25/10:50pm 27.5 24.6 8.1 29 10.9 W 13 17 7 9 1008.5 - 0.0
25/10:40pm 27.7 24.0 8.1 29 11.0 W 17 33 9 18 1008.6 - 0.0
25/10:30pm 27.9 23.7 7.6 27 11.4 WNW 19 26 10 14 1008.6 - 0.0
25/10:20pm 28.3 24.7 8.3 28 11.3 W 17 26 9 14 1008.6 - 0.0
25/10:10pm 27.9 24.3 8.2 29 11.1 W 17 26 9 14 1008.5 - 0.0
25/10:00pm 27.9 24.7 8.5 29 11.0 W 15 19 8 10 1008.6 - 0.0
25/09:50pm 27.1 24.7 8.5 31 10.5 W 11 19 6 10 1008.4 - 0.0
25/09:40pm 27.1 26.0 10.0 34 9.9 WSW 6 11 3 6 1008.5 - 0.0
25/09:30pm 27.6 26.7 10.5 34 10.0 WSW 6 9 3 5 1008.4 - 0.0
25/09:20pm 27.5 26.8 10.2 34 10.1 WSW 4 6 2 3 1008.3 - 0.0
25/09:10pm 27.5 26.9 10.4 34 10.0 SW 4 6 2 3 1008.2 - 0.0
25/09:00pm 27.7 27.2 10.7 34 10.0 SW 4 7 2 4 1008.0 - 0.0
25/08:50pm 27.9 27.7 10.4 33 10.2 SW 2 4 1 2 1008.0 - 0.0
25/08:40pm 28.0 27.8 10.6 33 10.2 SSW 2 6 1 3 1007.9 - 0.0
25/08:30pm 28.3 27.4 10.6 33 10.4 WSW 6 9 3 5 1007.9 - 0.0
25/08:20pm 28.1 27.3 11.0 34 10.1 SW 6 7 3 4 1007.9 - 0.0
25/08:10pm 28.5 28.1 11.1 34 10.3 W 4 7 2 4 1007.9 - 0.0
25/08:00pm 28.5 28.0 10.7 33 10.5 WNW 4 9 2 5 1007.7 - 0.0
25/07:50pm 28.4 27.6 11.2 34 10.2 WNW 6 7 3 4 1007.7 - 0.0
25/07:40pm 28.5 27.3 11.6 35 10.1 N 9 11 5 6 1007.7 - 0.0
25/07:30pm 29.5 28.0 12.0 34 10.6 N 11 15 6 8 1007.8 - 0.0
25/07:20pm 31.5 31.3 13.0 32 11.4 WNW 6 9 3 5 1007.7 - 0.0
25/07:10pm 32.6 32.4 12.9 30 12.2 WSW 6 9 3 5 1007.7 - 0.0
25/07:00pm 31.6 30.6 12.2 30 11.9 NNW 9 13 5 7 1007.7 - 0.0
25/06:50pm 32.0 30.5 12.0 29 12.2 NNW 11 19 6 10 1007.7 - 0.0
25/06:30pm 32.9 31.3 11.5 27 13.0 W 11 19 6 10 1007.7 - 0.0
25/06:10pm 33.5 33.1 13.1 29 12.7 SW 7 13 4 7 1007.8 - 0.0
25/06:00pm 33.1 31.7 13.4 30 12.3 SW 13 19 7 10 1007.8 - 0.0
25/05:40pm 31.3 30.9 14.1 35 10.8 SW 9 11 5 6 1008.1 - 0.0
25/05:30pm 33.1 32.6 13.7 31 12.2 W 9 13 5 7 1008.2 - 0.0
25/05:10pm 31.5 30.7 12.9 32 11.5 WNW 9 11 5 6 1008.5 - 0.0
25/05:00pm 32.8 32.4 13.1 30 12.3 NW 7 11 4 6 1008.5 - 0.0
25/04:30pm 31.6 30.3 12.6 31 11.7 W 11 15 6 8 1009.0 - 0.0
25/04:10pm 35.1 33.6 13.1 26 13.8 WSW 13 19 7 10 1009.3 - 0.0
25/04:00pm 35.0 34.3 13.2 27 13.7 NW 9 13 5 7 1009.4 - 0.0

Latest Capital City Observations: Canberra | Sydney | Melbourne | Brisbane | Adelaide | Perth | Hobart | Darwin

Other formats

Comma delimited format used in spreadsheet applications
http://www.bom.gov.au/fwo/IDN60903/IDN60903.99762.axf

JavaScript Object Notation format (JSON) in row-major order
http://www.bom.gov.au/fwo/IDN60903/IDN60903.99762.json

Data quality

Most of these data are generated automatically and are frequently updated. Quality checks on data are not normally performed. It is possible for incorrect values to appear. Refer to information at About Latest Weather Observations and please check the disclaimer before using these data.